Time;durP1;ratioP1;P1;durP2;ratioP2;P2;SDS_P1;SDS_P2;PMS_P1;PMS_P2;Temp;Humidity;BMP_temperature;BMP_pressure;BME280_temperature;BME280_humidity;BME280_pressure;Samples;Min_cycle;Max_cycle;Signal;HPM_P1;HPM_P2
2022/09/17 00:00:39;;;;;;;2.95;0.75;;;;;;;15.52;39.30;91397.53;5070437;28;20033;-76
2022/09/17 00:03:05;;;;;;;2.15;1.00;;;;;;;15.56;39.25;91402.91;5052687;28;20036;-76
2022/09/17 00:05:31;;;;;;;1.10;0.70;;;;;;;15.60;38.88;91406.38;5048610;28;20059;-76
2022/09/17 00:07:56;;;;;;;1.33;0.73;;;;;;;15.55;38.43;91404.75;5013144;28;20042;-76
2022/09/17 00:10:23;;;;;;;0.77;0.52;;;;;;;15.54;38.33;91397.97;5049978;28;20076;-76
2022/09/17 00:12:49;;;;;;;3.40;0.75;;;;;;;15.44;38.33;91398.47;5050324;28;20499;-76
2022/09/17 00:15:15;;;;;;;0.57;0.45;;;;;;;15.50;38.01;91397.13;5033480;28;20040;-76
2022/09/17 00:17:41;;;;;;;2.90;0.50;;;;;;;15.52;37.70;91408.09;5015679;28;20037;-76
2022/09/17 00:20:11;;;;;;;0.98;0.50;;;;;;;15.50;37.91;91397.13;5012024;28;20033;-76
2022/09/17 00:22:37;;;;;;;2.03;0.65;;;;;;;15.50;37.31;91388.44;5053878;28;20036;-76
2022/09/17 00:25:05;;;;;;;3.40;0.50;;;;;;;15.35;37.67;91403.16;5050395;28;20479;-76
2022/09/17 00:27:31;;;;;;;0.80;0.63;;;;;;;15.25;37.74;91396.53;5052868;28;20029;-76
2022/09/17 00:29:57;;;;;;;0.60;0.43;;;;;;;15.30;37.81;91393.63;5054130;28;20545;-76
2022/09/17 00:32:22;;;;;;;1.25;0.60;;;;;;;15.41;37.47;91385.97;5036142;28;20043;-76
2022/09/17 00:34:51;;;;;;;0.57;0.43;;;;;;;15.31;37.26;91395.19;5019515;28;20049;-76
2022/09/17 00:37:19;;;;;;;1.20;0.60;;;;;;;15.27;36.97;91377.75;5055083;28;20510;-76
2022/09/17 00:39:45;;;;;;;0.63;0.50;;;;;;;15.19;36.72;91388.13;5063763;28;20060;-76
2022/09/17 00:42:12;;;;;;;1.30;0.50;;;;;;;15.16;37.44;91378.25;5036218;28;20087;-76
2022/09/17 00:44:53;;;;;;;1.42;0.60;;;;;;;15.13;36.68;91380.81;5036023;28;20045;-76
2022/09/17 00:47:38;;;;;;;0.40;0.40;;;;;;;15.04;36.98;91386.25;5054401;28;20495;-76
2022/09/17 00:50:14;;;;;;;0.40;0.40;;;;;;;15.12;36.48;91374.78;5053920;28;20116;-76
2022/09/17 00:52:50;;;;;;;0.50;0.50;;;;;;;14.98;36.63;91372.56;5036053;28;20086;-77
2022/09/17 00:55:24;;;;;;;0.80;0.50;;;;;;;14.99;37.19;91373.31;5053801;28;20395;-75
2022/09/17 00:57:53;;;;;;;2.10;0.65;;;;;;;14.91;37.19;91372.41;5053250;28;20037;-76
2022/09/17 01:00:19;;;;;;;1.75;0.45;;;;;;;14.88;37.18;91378.34;5053436;28;20025;-76
2022/09/17 01:02:44;;;;;;;0.43;0.40;;;;;;;14.81;37.24;91387.94;5035621;28;20044;-75
2022/09/17 01:05:11;;;;;;;0.50;0.43;;;;;;;14.98;37.06;91379.72;5053652;28;20582;-75
2022/09/17 01:08:12;;;;;;;0.82;0.60;;;;;;;14.89;37.21;91384.38;5055971;28;20438;-76
2022/09/17 01:11:02;;;;;;;0.52;0.52;;;;;;;14.87;36.68;91382.06;5033361;28;20045;-76
2022/09/17 01:13:46;;;;;;;0.85;0.65;;;;;;;14.79;36.60;91375.09;5053682;28;20473;-76
2022/09/17 01:16:27;;;;;;;0.40;0.40;;;;;;;14.74;37.16;91373.47;5035435;28;20041;-76
2022/09/17 01:19:14;;;;;;;1.20;0.60;;;;;;;14.75;37.26;91382.91;5068644;28;20032;-76
2022/09/17 01:22:22;;;;;;;2.47;0.60;;;;;;;14.73;37.14;91377.22;5063169;28;20087;-76
2022/09/17 01:25:05;;;;;;;0.70;0.50;;;;;;;14.59;37.06;91390.03;5053387;28;20037;-76
2022/09/17 01:28:08;;;;;;;0.35;0.35;;;;;;;14.63;37.03;91387.47;5035790;28;20037;-75
2022/09/17 01:30:54;;;;;;;0.73;0.50;;;;;;;14.58;36.72;91391.13;5064099;28;20466;-76
2022/09/17 01:33:37;;;;;;;1.15;0.68;;;;;;;14.66;36.67;91394.69;5044324;28;20094;-75
2022/09/17 01:36:21;;;;;;;0.47;0.45;;;;;;;14.56;36.80;91393.31;5053059;28;20402;-76
2022/09/17 01:39:07;;;;;;;0.77;0.57;;;;;;;14.57;36.75;91406.16;5052503;28;20033;-75
2022/09/17 01:41:50;;;;;;;0.93;0.52;;;;;;;14.62;36.89;91407.78;5046707;28;20053;-75
2022/09/17 01:44:26;;;;;;;1.25;0.60;;;;;;;14.54;36.74;91401.56;5014939;28;20470;-76
2022/09/17 01:47:04;;;;;;;1.02;0.60;;;;;;;14.55;36.59;91395.19;5036474;28;20079;-76
2022/09/17 01:49:32;;;;;;;2.40;0.50;;;;;;;14.47;37.04;91400.59;5052542;28;20025;-76
2022/09/17 01:51:59;;;;;;;0.38;0.38;;;;;;;14.43;36.42;91404.97;5034269;28;20040;-76
2022/09/17 01:54:30;;;;;;;0.63;0.50;;;;;;;14.39;36.49;91404.91;5034603;28;20087;-75
2022/09/17 01:57:21;;;;;;;0.60;0.60;;;;;;;14.37;37.21;91407.09;5034788;28;20040;-76
2022/09/17 02:00:02;;;;;;;0.30;0.30;;;;;;;14.34;36.80;91411.16;5036033;28;20068;-76
2022/09/17 02:02:49;;;;;;;1.35;0.70;;;;;;;14.21;37.20;91412.31;5036202;28;20698;-76
2022/09/17 02:05:34;;;;;;;1.67;0.43;;;;;;;14.27;36.55;91410.94;5052279;28;20383;-75
2022/09/17 02:08:08;;;;;;;2.53;0.57;;;;;;;14.34;36.72;91408.53;5034479;28;20033;-75
2022/09/17 02:10:41;;;;;;;2.53;0.65;;;;;;;14.26;36.68;91414.69;5056265;28;20045;-75
2022/09/17 02:13:15;;;;;;;0.60;0.30;;;;;;;14.24;36.44;91424.03;5058756;28;20071;-74
2022/09/17 02:15:55;;;;;;;5.45;0.60;;;;;;;14.34;36.21;91419.06;5052321;28;20478;-74
2022/09/17 02:18:36;;;;;;;1.08;0.52;;;;;;;14.24;36.61;91430.06;5052364;28;20142;-75
2022/09/17 02:21:14;;;;;;;0.40;0.40;;;;;;;14.17;36.33;91432.50;5052320;28;20037;-75
2022/09/17 02:24:05;;;;;;;2.53;0.60;;;;;;;14.14;36.52;91425.28;5046497;28;20076;-75
2022/09/17 02:26:34;;;;;;;6.32;0.80;;;;;;;14.08;36.48;91427.34;5051990;28;20101;-74
2022/09/17 02:29:09;;;;;;;0.68;0.50;;;;;;;14.04;36.29;91425.72;5034299;28;20075;-74
2022/09/17 02:31:35;;;;;;;0.52;0.50;;;;;;;14.03;36.16;91434.72;5056369;28;20031;-75
2022/09/17 02:34:03;;;;;;;0.40;0.40;;;;;;;14.00;36.45;91432.75;5071728;28;20041;-75
2022/09/17 02:36:30;;;;;;;0.50;0.47;;;;;;;13.98;35.86;91437.56;5071553;28;20035;-75
2022/09/17 02:39:02;;;;;;;0.55;0.47;;;;;;;13.97;36.63;91431.56;5069686;28;20040;-75
2022/09/17 02:42:10;;;;;;;0.32;0.32;;;;;;;13.93;36.58;91426.19;5069501;28;20073;-74
2022/09/17 02:44:44;;;;;;;0.50;0.50;;;;;;;14.00;36.13;91425.63;5001002;28;20072;-75
2022/09/17 02:47:40;;;;;;;0.57;0.50;;;;;;;13.94;36.41;91429.59;5031589;28;20036;-75
2022/09/17 02:50:21;;;;;;;0.35;0.30;;;;;;;13.95;35.98;91431.88;5033655;28;20086;-74
2022/09/17 02:53:13;;;;;;;1.20;0.40;;;;;;;13.90;35.69;91439.25;5031294;28;20419;-75
2022/09/17 02:55:58;;;;;;;0.38;0.38;;;;;;;13.79;36.31;91425.00;5039603;28;20041;-75
2022/09/17 02:58:33;;;;;;;1.90;0.60;;;;;;;13.76;36.34;91415.91;5016976;28;20037;-75
2022/09/17 03:01:05;;;;;;;0.80;0.50;;;;;;;13.80;36.48;91435.19;5051231;28;20116;-75
2022/09/17 03:03:35;;;;;;;0.45;0.45;;;;;;;13.84;36.12;91433.44;5051087;28;20037;-75
2022/09/17 03:06:01;;;;;;;0.60;0.60;;;;;;;13.77;36.21;91435.09;5017276;28;20052;-75
2022/09/17 03:08:31;;;;;;;0.50;0.50;;;;;;;13.68;35.87;91424.69;5062884;28;20059;-75
2022/09/17 03:10:56;;;;;;;0.52;0.50;;;;;;;13.72;35.54;91425.56;5050137;28;20491;-75
2022/09/17 03:13:22;;;;;;;0.40;0.40;;;;;;;13.74;35.35;91423.38;5050910;28;20035;-75
2022/09/17 03:15:48;;;;;;;2.70;0.55;;;;;;;13.78;36.43;91437.41;5070825;28;20029;-77
2022/09/17 03:18:13;;;;;;;0.50;0.50;;;;;;;13.66;36.41;91438.16;5070932;28;20028;-74
2022/09/17 03:20:39;;;;;;;0.45;0.43;;;;;;;13.58;36.47;91440.91;5023565;28;20065;-74
2022/09/17 03:23:04;;;;;;;0.50;0.47;;;;;;;13.56;36.36;91443.13;5040232;28;20045;-74
2022/09/17 03:25:30;;;;;;;1.50;0.60;;;;;;;13.61;36.33;91445.50;5032895;28;20025;-74
2022/09/17 03:27:56;;;;;;;0.40;0.40;;;;;;;13.53;36.47;91445.31;5033217;28;20036;-75
2022/09/17 03:30:21;;;;;;;0.30;0.30;;;;;;;13.48;36.85;91442.88;5049699;28;20048;-74
2022/09/17 03:32:47;;;;;;;2.53;0.45;;;;;;;13.52;36.45;91449.00;5037402;28;20070;-75
2022/09/17 03:35:12;;;;;;;0.63;0.50;;;;;;;13.49;35.84;91433.91;5060761;28;20044;-74
2022/09/17 03:37:38;;;;;;;0.30;0.30;;;;;;;13.49;36.30;91444.41;5032778;28;20048;-74
2022/09/17 03:40:04;;;;;;;0.30;0.30;;;;;;;13.51;35.79;91452.75;5016410;28;20029;-77
2022/09/17 03:42:30;;;;;;;0.40;0.40;;;;;;;13.47;36.21;91457.13;5050179;28;20045;-74
2022/09/17 03:44:55;;;;;;;0.45;0.30;;;;;;;13.36;36.70;91448.13;5048465;28;20041;-75
2022/09/17 03:47:21;;;;;;;1.45;0.40;;;;;;;13.29;36.91;91459.19;5052076;28;20040;-77
2022/09/17 03:49:47;;;;;;;0.30;0.30;;;;;;;13.19;36.26;91456.19;5061073;28;20037;-75
2022/09/17 03:52:12;;;;;;;0.55;0.40;;;;;;;13.17;36.69;91471.50;5032644;28;20052;-75
2022/09/17 03:54:38;;;;;;;2.17;0.30;;;;;;;13.23;35.54;91464.97;5033111;28;20039;-74
2022/09/17 03:57:04;;;;;;;0.35;0.35;;;;;;;13.28;35.51;91472.66;5032584;28;20130;-77
2022/09/17 03:59:29;;;;;;;3.58;0.43;;;;;;;13.17;35.47;91468.88;5050373;28;20045;-74
2022/09/17 04:01:55;;;;;;;3.38;0.40;;;;;;;13.10;35.53;91472.84;5049956;28;20032;-75
2022/09/17 04:04:20;;;;;;;0.28;0.28;;;;;;;13.17;34.47;91468.88;5033170;28;20045;-74
2022/09/17 04:06:46;;;;;;;3.33;0.52;;;;;;;13.05;35.01;91475.66;5050424;28;20044;-74
2022/09/17 04:09:11;;;;;;;0.40;0.40;;;;;;;13.09;34.23;91473.91;5032606;28;20032;-74
2022/09/17 04:11:37;;;;;;;0.95;0.60;;;;;;;13.00;34.80;91481.13;5050093;28;20060;-74
2022/09/17 04:14:03;;;;;;;3.35;0.50;;;;;;;12.94;34.73;91477.16;5037178;28;20029;-74
2022/09/17 04:16:28;;;;;;;3.90;0.63;;;;;;;12.89;34.94;91480.00;5049545;28;20037;-74
2022/09/17 04:18:54;;;;;;;0.50;0.50;;;;;;;12.89;34.20;91493.13;5031990;28;20106;-74
2022/09/17 04:21:19;;;;;;;0.50;0.50;;;;;;;12.96;33.30;91485.47;5049763;28;20033;-74
2022/09/17 04:23:45;;;;;;;0.73;0.52;;;;;;;12.88;34.43;91484.47;5026201;28;20077;-74
2022/09/17 04:26:10;;;;;;;0.75;0.50;;;;;;;12.79;34.76;91491.69;5033348;28;20040;-75
2022/09/17 04:28:36;;;;;;;0.35;0.35;;;;;;;12.76;34.28;91496.78;5049150;28;20041;-74
2022/09/17 04:31:02;;;;;;;0.47;0.47;;;;;;;12.67;33.78;91497.63;5048839;28;20028;-75
2022/09/17 04:33:27;;;;;;;2.15;0.60;;;;;;;12.66;34.18;91503.22;5032302;28;20047;-75
2022/09/17 04:35:53;;;;;;;0.50;0.50;;;;;;;12.62;34.67;91505.72;5056972;28;20119;-74
2022/09/17 04:38:19;;;;;;;0.40;0.40;;;;;;;12.60;34.26;91510.50;5059614;28;20028;-74
2022/09/17 04:40:48;;;;;;;0.70;0.52;;;;;;;12.65;33.47;91497.22;5069928;28;20040;-74
2022/09/17 04:43:13;;;;;;;2.30;0.60;;;;;;;12.70;33.64;91499.63;5069200;28;20112;-75
2022/09/17 04:45:39;;;;;;;1.73;0.65;;;;;;;12.60;34.61;91505.25;5059335;28;20117;-73
2022/09/17 04:48:05;;;;;;;0.88;0.70;;;;;;;12.54;33.76;91516.28;5064357;28;20038;-74
2022/09/17 04:50:31;;;;;;;1.10;0.63;;;;;;;12.52;33.76;91514.00;5052301;28;20459;-75
2022/09/17 04:52:57;;;;;;;1.08;0.75;;;;;;;12.46;33.30;91523.91;5028444;28;20112;-75
2022/09/17 04:55:22;;;;;;;1.58;0.65;;;;;;;12.40;33.20;91519.16;5048936;28;20127;-74
2022/09/17 04:57:50;;;;;;;0.82;0.60;;;;;;;12.52;32.56;91535.00;5033000;28;20048;-77
2022/09/17 05:00:16;;;;;;;1.92;0.70;;;;;;;12.48;33.36;91534.84;5050227;28;20037;-76
2022/09/17 05:02:48;;;;;;;1.10;0.70;;;;;;;12.39;33.33;91525.53;5050229;28;20033;-76
2022/09/17 05:05:16;;;;;;;1.97;1.20;;;;;;;12.38;33.30;91534.47;5057668;28;20470;-77
2022/09/17 05:07:41;;;;;;;1.02;0.75;;;;;;;12.27;33.89;91532.22;5045529;28;20043;-75
2022/09/17 05:10:08;;;;;;;1.63;0.90;;;;;;;12.23;33.53;91533.94;5053689;28;20454;-76
2022/09/17 05:12:34;;;;;;;0.60;0.50;;;;;;;12.26;31.87;91533.31;5053380;28;20109;-76
2022/09/17 05:15:00;;;;;;;1.20;0.70;;;;;;;12.26;31.70;91546.44;5035779;28;20140;-76
2022/09/17 05:17:25;;;;;;;0.68;0.60;;;;;;;12.23;32.02;91533.94;5055215;28;20028;-76
2022/09/17 05:19:52;;;;;;;1.02;0.88;;;;;;;12.23;32.02;91547.06;5072913;28;20512;-76
2022/09/17 05:22:18;;;;;;;1.17;0.80;;;;;;;12.24;31.22;91539.97;5055562;28;20032;-75
2022/09/17 05:24:44;;;;;;;1.35;0.75;;;;;;;12.26;32.37;91541.19;5073344;28;20486;-74
2022/09/17 05:27:10;;;;;;;1.73;0.80;;;;;;;12.27;32.46;91545.34;5061718;28;20043;-74
2022/09/17 05:29:35;;;;;;;0.60;0.60;;;;;;;12.42;31.85;91561.63;5053197;28;20025;-77
2022/09/17 05:32:05;;;;;;;0.68;0.60;;;;;;;12.57;31.71;91560.28;5035095;28;20449;-74
2022/09/17 05:34:31;;;;;;;0.73;0.70;;;;;;;12.69;30.84;91558.47;5047368;28;20048;-77
2022/09/17 05:36:56;;;;;;;0.60;0.60;;;;;;;12.85;28.70;91563.13;5047860;28;20036;-74
2022/09/17 05:39:24;;;;;;;1.58;0.98;;;;;;;13.23;30.02;91554.31;5017915;28;20132;-75
2022/09/17 05:41:53;;;;;;;2.15;0.95;;;;;;;13.27;29.79;91563.06;5054077;28;20045;-78
2022/09/17 05:44:20;;;;;;;0.70;0.70;;;;;;;13.68;29.26;91553.53;5046076;28;20088;-80
2022/09/17 05:46:46;;;;;;;0.95;0.73;;;;;;;14.58;27.17;91559.66;5035631;28;20033;-80
2022/09/17 05:49:13;;;;;;;2.33;0.80;;;;;;;15.65;28.49;91561.75;5036525;28;20048;-76
2022/09/17 05:51:40;;;;;;;1.50;0.88;;;;;;;16.56;24.62;91560.09;5050728;28;20032;-81
2022/09/17 05:54:06;;;;;;;1.15;0.80;;;;;;;17.11;25.30;91563.50;5038830;28;20036;-81
2022/09/17 05:56:32;;;;;;;1.48;0.90;;;;;;;17.59;22.83;91564.00;5023607;28;20037;-81
2022/09/17 05:58:58;;;;;;;3.22;0.85;;;;;;;17.99;23.27;91562.81;5049254;28;20037;-77
2022/09/17 06:01:24;;;;;;;0.95;0.63;;;;;;;18.10;23.10;91569.06;5011858;28;20124;-81
2022/09/17 06:03:49;;;;;;;2.53;0.70;;;;;;;18.70;23.54;91578.25;5055196;28;20033;-80
2022/09/17 06:06:28;;;;;;;0.50;0.50;;;;;;;19.19;21.84;91566.78;5042259;28;20045;-80
2022/09/17 06:09:05;;;;;;;1.20;0.70;;;;;;;19.62;22.72;91567.25;5023380;28;20114;-80
2022/09/17 06:11:31;;;;;;;4.28;1.27;;;;;;;20.32;22.28;91565.59;5073032;28;20045;-79
2022/09/17 06:13:57;;;;;;;3.03;0.60;;;;;;;20.85;21.52;91572.44;5027949;28;20136;-79
2022/09/17 06:16:23;;;;;;;1.75;0.57;;;;;;;19.60;20.44;91569.50;5055380;28;20397;-78
2022/09/17 06:18:51;;;;;;;0.68;0.55;;;;;;;19.26;20.98;91572.16;5041144;28;20041;-79
2022/09/17 06:21:18;;;;;;;1.17;0.57;;;;;;;20.26;22.09;91574.28;5046143;28;20026;-79
2022/09/17 06:23:44;;;;;;;3.47;0.70;;;;;;;20.82;20.52;91565.19;5042886;28;20099;-78
2022/09/17 06:26:10;;;;;;;0.50;0.50;;;;;;;20.95;19.69;91558.41;5065782;28;20037;-80
2022/09/17 06:28:36;;;;;;;0.57;0.50;;;;;;;20.74;20.68;91568.94;5043875;28;20445;-79
2022/09/17 06:31:03;;;;;;;1.98;0.77;;;;;;;20.94;20.00;91570.19;5061240;28;20041;-79
2022/09/17 06:33:31;;;;;;;1.00;0.60;;;;;;;19.49;21.26;91589.84;5075721;28;20040;-80
2022/09/17 06:36:01;;;;;;;0.88;0.40;;;;;;;19.73;20.84;91583.31;5047015;28;20138;-80
2022/09/17 06:38:28;;;;;;;0.73;0.65;;;;;;;19.63;21.48;91583.91;5028926;28;20051;-80
2022/09/17 06:40:55;;;;;;;1.77;0.77;;;;;;;20.77;20.74;91589.47;5023143;28;20072;-80
2022/09/17 06:43:21;;;;;;;0.70;0.55;;;;;;;21.63;20.62;91584.56;5044245;28;20427;-80
2022/09/17 06:45:54;;;;;;;1.02;0.70;;;;;;;22.37;18.46;91577.09;5057734;28;20029;-81
2022/09/17 06:48:20;;;;;;;1.42;0.80;;;;;;;23.56;17.08;91590.97;5065376;28;20114;-81
2022/09/17 06:50:47;;;;;;;1.05;0.52;;;;;;;24.12;17.56;91596.41;5065835;28;20017;-81
2022/09/17 06:53:13;;;;;;;1.20;0.80;;;;;;;24.47;16.93;91576.66;5054503;28;21727;-81
2022/09/17 06:55:38;;;;;;;0.50;0.50;;;;;;;23.92;17.00;91580.88;5057194;28;20040;-79
2022/09/17 06:58:04;;;;;;;2.50;0.60;;;;;;;22.20;18.90;91595.34;5042519;28;20040;-76
2022/09/17 07:00:30;;;;;;;1.58;0.80;;;;;;;21.79;18.55;91592.97;5035236;28;20045;-76
2022/09/17 07:02:57;;;;;;;0.98;0.55;;;;;;;22.61;18.89;91594.22;5051054;28;20041;-76
2022/09/17 07:05:23;;;;;;;2.97;0.70;;;;;;;22.99;17.42;91587.34;5033496;28;20055;-76
2022/09/17 07:07:49;;;;;;;1.10;0.73;;;;;;;23.02;18.77;91594.56;5051261;28;20044;-76
2022/09/17 07:10:15;;;;;;;4.28;0.68;;;;;;;22.83;17.85;91601.06;5053920;28;20478;-76
2022/09/17 07:12:41;;;;;;;1.98;0.63;;;;;;;22.98;18.28;91609.78;5050884;28;20048;-76
2022/09/17 07:15:10;;;;;;;1.30;0.70;;;;;;;21.51;19.53;91617.63;5050941;28;20483;-76
2022/09/17 07:17:38;;;;;;;2.28;0.65;;;;;;;21.47;19.90;91618.75;5052358;28;20495;-76
2022/09/17 07:20:04;;;;;;;0.52;0.40;;;;;;;21.36;19.59;91614.09;5050380;28;20060;-76
2022/09/17 07:22:30;;;;;;;3.25;0.95;;;;;;;21.23;19.54;91620.88;5051078;28;20584;-75
2022/09/17 07:24:55;;;;;;;0.73;0.57;;;;;;;20.98;19.89;91620.75;5032434;28;20079;-75
2022/09/17 07:27:21;;;;;;;1.13;0.52;;;;;;;20.92;20.61;91617.69;5032352;28;20376;-76
2022/09/17 07:29:46;;;;;;;0.40;0.40;;;;;;;21.06;19.98;91621.56;5050510;28;20040;-76
2022/09/17 07:32:12;;;;;;;1.33;0.90;;;;;;;20.42;18.93;91627.94;5050409;28;20044;-76
2022/09/17 07:34:37;;;;;;;1.20;0.70;;;;;;;20.46;21.23;91634.03;5033277;28;20161;-76
2022/09/17 07:37:03;;;;;;;1.08;0.60;;;;;;;20.57;20.95;91632.25;5032451;28;20041;-76
2022/09/17 07:39:28;;;;;;;1.55;0.50;;;;;;;20.37;21.18;91642.31;5052582;28;20029;-76
2022/09/17 07:41:54;;;;;;;1.20;0.63;;;;;;;20.56;21.07;91630.75;5052339;28;20514;-75
2022/09/17 07:44:21;;;;;;;1.33;0.60;;;;;;;20.46;21.34;91634.03;5052983;28;20029;-76
2022/09/17 07:46:46;;;;;;;1.52;0.50;;;;;;;20.35;21.40;91633.19;5061845;28;20029;-76
2022/09/17 07:49:12;;;;;;;5.05;0.52;;;;;;;19.73;21.45;91637.16;5032886;28;20029;-76
2022/09/17 07:51:37;;;;;;;2.75;0.70;;;;;;;20.08;22.02;91649.25;5050180;28;20493;-75
2022/09/17 07:54:03;;;;;;;2.15;0.57;;;;;;;20.32;21.57;91644.56;5049408;28;20106;-75
2022/09/17 07:56:28;;;;;;;1.73;0.60;;;;;;;20.56;20.94;91653.88;5032332;28;20390;-76
2022/09/17 07:58:54;;;;;;;1.77;0.70;;;;;;;20.52;21.71;91648.53;5050888;28;20192;-76
2022/09/17 08:01:21;;;;;;;0.90;0.50;;;;;;;20.28;21.22;91641.09;5039571;28;20079;-76
2022/09/17 08:03:51;;;;;;;1.25;0.60;;;;;;;19.92;21.87;91659.34;5069913;28;20403;-75
2022/09/17 08:06:19;;;;;;;1.85;0.90;;;;;;;19.78;22.21;91651.25;5039451;28;20040;-76
2022/09/17 08:08:45;;;;;;;6.43;1.25;;;;;;;19.67;22.29;91662.47;5032519;28;20040;-76
2022/09/17 08:11:13;;;;;;;1.40;0.50;;;;;;;18.65;21.46;91671.34;5032161;28;20053;-76
2022/09/17 08:13:39;;;;;;;3.22;0.82;;;;;;;18.88;22.40;91672.06;5035159;28;20040;-76
2022/09/17 08:16:12;;;;;;;0.85;0.68;;;;;;;19.30;23.44;91673.03;5035984;28;20033;-76
2022/09/17 08:18:38;;;;;;;0.75;0.45;;;;;;;18.96;21.50;91685.44;5049449;28;20055;-75
2022/09/17 08:21:05;;;;;;;5.32;0.98;;;;;;;18.98;22.60;91694.59;5049796;28;20033;-76
2022/09/17 08:23:34;;;;;;;0.50;0.40;;;;;;;19.30;22.79;91689.72;5032963;28;20040;-76
2022/09/17 08:26:00;;;;;;;0.65;0.52;;;;;;;19.59;21.97;91705.22;5049268;28;20028;-76
2022/09/17 08:28:28;;;;;;;1.08;0.80;;;;;;;19.73;22.30;91702.78;5030852;28;20094;-75
2022/09/17 08:30:59;;;;;;;0.85;0.57;;;;;;;19.95;22.44;91717.06;5070421;28;20108;-75
2022/09/17 08:33:25;;;;;;;0.47;0.47;;;;;;;19.80;21.80;91720.69;5035333;28;20152;-76
2022/09/17 08:35:58;;;;;;;0.98;0.60;;;;;;;20.27;22.44;91721.97;5041763;28;20109;-76
2022/09/17 08:38:25;;;;;;;1.27;0.80;;;;;;;20.32;23.24;91718.97;5043349;28;20514;-76
2022/09/17 08:41:06;;;;;;;1.25;0.75;;;;;;;20.35;21.83;91724.34;5024497;28;20033;-77
2022/09/17 08:43:44;;;;;;;3.42;1.10;;;;;;;20.71;23.54;91739.84;5034040;28;20057;-76
2022/09/17 08:46:10;;;;;;;1.30;0.70;;;;;;;20.66;20.59;91753.50;5050774;28;20039;-76
2022/09/17 08:48:41;;;;;;;0.65;0.50;;;;;;;20.10;19.61;91749.88;5052218;28;20044;-76
2022/09/17 08:51:25;;;;;;;3.47;0.63;;;;;;;20.10;24.41;91739.22;5070986;28;20033;-76
2022/09/17 08:54:10;;;;;;;2.03;0.93;;;;;;;20.42;22.33;91752.09;5062926;28;20390;-76
2022/09/17 08:56:37;;;;;;;2.15;0.80;;;;;;;20.72;22.21;91762.69;5045865;28;20234;-75
2022/09/17 08:59:21;;;;;;;1.02;0.55;;;;;;;19.14;21.73;91761.50;5032074;28;20033;-76
2022/09/17 09:02:17;;;;;;;0.57;0.57;;;;;;;17.91;21.98;91757.09;5040641;28;20071;-76
2022/09/17 09:04:55;;;;;;;0.75;0.60;;;;;;;18.53;25.63;91762.41;5041195;28;20028;-76
2022/09/17 09:07:26;;;;;;;4.05;0.77;;;;;;;19.09;24.52;91774.28;5054995;28;20044;-76
2022/09/17 09:10:15;;;;;;;0.63;0.60;;;;;;;19.36;23.04;91764.44;5046576;28;20079;-76
2022/09/17 09:12:41;;;;;;;0.82;0.60;;;;;;;19.25;22.66;91764.31;5043630;28;20052;-76
2022/09/17 09:15:30;;;;;;;0.55;0.50;;;;;;;18.26;22.92;91766.81;5035686;28;20045;-75
2022/09/17 09:18:02;;;;;;;1.20;0.60;;;;;;;18.18;25.04;91789.00;5051751;28;20032;-76
2022/09/17 09:20:36;;;;;;;1.50;0.75;;;;;;;18.77;24.47;91790.44;5045433;28;20028;-76
2022/09/17 09:23:16;;;;;;;0.60;0.60;;;;;;;18.05;23.03;91765.28;5052247;28;20086;-76
2022/09/17 09:25:53;;;;;;;0.20;0.20;;;;;;;18.28;22.42;91791.06;5014955;28;20037;-75
2022/09/17 09:28:30;;;;;;;1.70;0.80;;;;;;;18.20;23.24;91797.38;5055299;28;20123;-75
2022/09/17 09:30:56;;;;;;;0.50;0.50;;;;;;;18.07;23.38;91794.84;5050019;28;20025;-75
2022/09/17 09:33:29;;;;;;;0.98;0.50;;;;;;;17.35;24.20;91773.28;5053281;28;20035;-76
2022/09/17 09:35:55;;;;;;;1.38;0.80;;;;;;;17.71;23.50;91808.47;5052049;28;20021;-75
2022/09/17 09:38:32;;;;;;;1.35;0.70;;;;;;;18.03;24.16;91817.06;5050468;28;20040;-76
2022/09/17 09:41:01;;;;;;;1.08;0.63;;;;;;;18.62;23.58;91817.78;5044359;28;20112;-76
2022/09/17 09:44:01;;;;;;;1.65;0.77;;;;;;;18.93;25.18;91825.56;5034902;28;20107;-76
2022/09/17 09:46:49;;;;;;;0.73;0.60;;;;;;;19.55;23.38;91816.69;5031198;28;20494;-76
2022/09/17 09:49:39;;;;;;;0.90;0.70;;;;;;;19.94;23.43;91821.78;5016004;28;20140;-76
2022/09/17 09:52:11;;;;;;;1.40;0.85;;;;;;;19.93;24.64;91820.25;5051538;28;20036;-75
2022/09/17 09:54:51;;;;;;;2.05;0.70;;;;;;;20.18;23.70;91820.56;5047903;28;20512;-76
2022/09/17 09:57:30;;;;;;;3.60;0.60;;;;;;;20.45;22.42;91831.88;5049393;28;20433;-76
2022/09/17 10:00:38;;;;;;;1.08;0.68;;;;;;;20.12;19.81;91832.63;5035153;28;20044;-76
2022/09/17 10:03:15;;;;;;;0.93;0.60;;;;;;;19.46;23.14;91824.13;5010315;28;20064;-76
2022/09/17 10:05:51;;;;;;;1.48;0.65;;;;;;;18.60;24.35;91827.97;5051313;28;20029;-76
2022/09/17 10:08:17;;;;;;;1.50;0.60;;;;;;;18.92;23.75;91839.97;5051984;28;20124;-76
2022/09/17 10:11:05;;;;;;;2.63;0.68;;;;;;;19.47;24.31;91837.03;5034549;28;20049;-75
2022/09/17 10:13:36;;;;;;;1.25;0.95;;;;;;;19.74;25.08;91842.38;5034373;28;20044;-76
2022/09/17 10:16:24;;;;;;;1.13;0.70;;;;;;;20.26;24.64;91843.41;5017806;28;20029;-76
2022/09/17 10:19:17;;;;;;;1.30;0.80;;;;;;;20.61;23.20;91855.63;5009139;28;20615;-76
2022/09/17 10:21:43;;;;;;;1.48;0.77;;;;;;;20.67;23.14;91845.41;5026898;28;20053;-76
2022/09/17 10:24:30;;;;;;;1.10;0.63;;;;;;;20.65;23.74;91861.75;5030124;28;20480;-76
2022/09/17 10:27:18;;;;;;;1.13;0.70;;;;;;;21.16;22.76;91855.78;5030649;28;20037;-76
2022/09/17 10:29:46;;;;;;;4.13;0.90;;;;;;;21.09;21.65;91862.94;5020720;28;20442;-76
2022/09/17 10:32:16;;;;;;;1.73;0.70;;;;;;;20.63;22.20;91860.59;5019923;28;20025;-76
2022/09/17 10:35:03;;;;;;;1.20;0.65;;;;;;;20.69;22.69;91877.72;5031601;28;20037;-76
2022/09/17 10:37:48;;;;;;;2.47;1.20;;;;;;;20.91;21.83;91860.88;5031318;28;20044;-76
2022/09/17 10:40:20;;;;;;;0.38;0.35;;;;;;;20.90;20.21;91854.03;5033826;28;20064;-76
2022/09/17 10:42:50;;;;;;;1.42;0.60;;;;;;;20.88;22.40;91861.63;5028838;28;20037;-76
2022/09/17 10:45:27;;;;;;;1.83;0.80;;;;;;;21.06;23.45;91861.03;5013798;28;20083;-76
2022/09/17 10:47:55;;;;;;;2.35;1.00;;;;;;;20.96;23.27;91868.53;5013153;28;20426;-76
2022/09/17 10:50:27;;;;;;;1.08;0.65;;;;;;;21.31;22.50;91872.66;5031469;28;20037;-76
2022/09/17 10:52:55;;;;;;;4.35;0.65;;;;;;;21.53;20.74;91886.94;5031600;28;20069;-76
2022/09/17 10:55:55;;;;;;;0.77;0.50;;;;;;;21.07;21.00;91876.59;5031064;28;20511;-75
2022/09/17 10:58:34;;;;;;;0.50;0.50;;;;;;;20.53;20.44;91870.69;5008449;28;20050;-75
2022/09/17 11:01:05;;;;;;;0.98;0.50;;;;;;;20.10;24.36;91883.47;5014125;28;20526;-76
2022/09/17 11:04:28;;;;;;;0.75;0.35;;;;;;;20.27;23.61;91882.16;5010351;28;20037;-76
2022/09/17 11:07:07;;;;;;;;;;;;;;;20.59;22.28;91889.78;4959909;28;20539;-75
2022/09/17 11:09:41;;;;;;;0.47;0.40;;;;;;;20.79;20.99;91879.75;4950369;28;20410;-77
2022/09/17 11:12:33;;;;;;;0.77;0.50;;;;;;;20.15;21.84;91883.16;4984333;28;20129;-76
2022/09/17 11:15:05;;;;;;;0.45;0.45;;;;;;;19.44;21.93;91866.94;5032138;28;20128;-76
2022/09/17 11:17:42;;;;;;;;;;;;;;;19.03;23.75;91876.50;5016168;28;20503;-76
2022/09/17 11:20:37;;;;;;;2.30;0.60;;;;;;;19.39;22.47;91896.44;5026395;28;20287;-76
2022/09/17 11:23:18;;;;;;;1.95;0.93;;;;;;;19.62;23.85;91891.09;5033074;28;20188;-76
2022/09/17 11:25:58;;;;;;;3.10;0.65;;;;;;;18.56;21.93;91904.03;5050887;28;20043;-76
2022/09/17 11:28:42;;;;;;;0.65;0.45;;;;;;;18.70;23.42;91899.75;5032946;28;20401;-75
2022/09/17 11:31:08;;;;;;;1.67;0.40;;;;;;;18.60;22.74;91896.91;5050654;28;20402;-76
2022/09/17 11:33:42;;;;;;;0.52;0.40;;;;;;;18.32;21.54;91897.88;5050678;28;20082;-76
2022/09/17 11:36:13;;;;;;;1.02;0.50;;;;;;;18.04;22.84;91896.19;5043761;28;20490;-76
2022/09/17 11:38:43;;;;;;;0.70;0.63;;;;;;;17.77;24.81;91905.03;5018485;28;20522;-77
2022/09/17 11:41:24;;;;;;;0.45;0.45;;;;;;;18.04;22.90;91900.72;5019934;28;20034;-77
2022/09/17 11:43:59;;;;;;;0.75;0.40;;;;;;;17.76;22.69;91898.16;5024446;28;20120;-76
2022/09/17 11:46:32;;;;;;;0.82;0.60;;;;;;;18.27;25.17;91906.88;5028081;28;20394;-75
2022/09/17 11:49:07;;;;;;;3.20;1.23;;;;;;;18.85;25.36;91919.38;5023948;28;20037;-77
2022/09/17 11:51:46;;;;;;;0.47;0.47;;;;;;;19.27;23.89;91900.03;5023456;28;20400;-78
2022/09/17 11:54:27;;;;;;;0.52;0.52;;;;;;;19.82;24.35;91914.94;5019481;28;20033;-77
2022/09/17 11:57:15;;;;;;;1.52;0.60;;;;;;;19.77;21.16;91892.13;5025459;28;20026;-76